createdAt,value
2022-09-20T00:00:48.160Z,10.75
2022-09-20T00:03:16.488Z,10.78
2022-09-20T00:05:45.226Z,10.34
2022-09-20T00:08:15.672Z,10.68
2022-09-20T00:10:42.868Z,10.40
2022-09-20T00:13:12.926Z,10.13
2022-09-20T00:15:45.798Z,10.39
2022-09-20T00:18:13.170Z,10.56
2022-09-20T00:20:48.042Z,9.77
2022-09-20T00:23:14.903Z,10.59
2022-09-20T00:25:42.019Z,10.47
2022-09-20T00:28:09.406Z,9.68
2022-09-20T00:30:36.626Z,10.65
2022-09-20T00:33:03.815Z,10.06
2022-09-20T00:35:31.180Z,10.58
2022-09-20T00:37:58.507Z,10.55
2022-09-20T00:40:29.460Z,10.32
2022-09-20T00:42:56.673Z,10.48
2022-09-20T00:45:26.124Z,10.47
2022-09-20T00:48:05.764Z,10.42
2022-09-20T00:50:35.809Z,10.41
2022-09-20T00:53:14.563Z,9.98
2022-09-20T00:55:47.531Z,10.38
2022-09-20T00:58:14.753Z,10.29
2022-09-20T01:00:44.018Z,10.00
2022-09-20T01:03:11.247Z,6.42
2022-09-20T01:05:40.105Z,10.37
2022-09-20T01:08:07.717Z,10.33
2022-09-20T01:10:34.354Z,10.15
2022-09-20T01:13:01.006Z,9.66
2022-09-20T01:15:29.945Z,10.35
2022-09-20T01:18:00.223Z,10.38
2022-09-20T01:20:33.418Z,10.35
2022-09-20T01:24:13.760Z,9.95
2022-09-20T01:26:40.128Z,10.32
2022-09-20T01:29:27.007Z,10.36
2022-09-20T01:31:57.051Z,10.33
2022-09-20T01:34:46.825Z,9.77
2022-09-20T01:37:28.610Z,10.36
2022-09-20T01:40:10.424Z,8.86
2022-09-20T01:42:40.208Z,10.34
2022-09-20T01:45:28.516Z,9.90
2022-09-20T01:48:22.924Z,10.28
2022-09-20T01:51:24.925Z,10.29
2022-09-20T01:53:54.224Z,10.35
2022-09-20T01:56:57.726Z,10.36
2022-09-20T01:59:56.634Z,10.35
2022-09-20T02:02:53.931Z,10.37
2022-09-20T02:05:47.987Z,10.43
2022-09-20T02:08:39.218Z,10.43
2022-09-20T02:11:14.619Z,10.43
2022-09-20T02:13:41.059Z,10.48
2022-09-20T02:16:16.626Z,10.41
2022-09-20T02:19:01.800Z,10.46
2022-09-20T02:21:43.653Z,10.41
2022-09-20T02:24:30.077Z,10.39
2022-09-20T02:27:25.324Z,10.39
2022-09-20T02:30:21.233Z,10.39
2022-09-20T02:33:02.720Z,10.39
2022-09-20T02:35:47.677Z,10.38
2022-09-20T02:38:25.770Z,10.33
2022-09-20T02:40:58.205Z,10.32
2022-09-20T02:43:33.544Z,10.23
2022-09-20T02:46:41.686Z,9.44
2022-09-20T02:49:17.402Z,10.18
2022-09-20T02:51:51.863Z,9.64
2022-09-20T02:54:40.030Z,10.11
2022-09-20T02:57:25.794Z,10.13
2022-09-20T03:00:10.720Z,10.13
2022-09-20T03:02:58.227Z,10.10
2022-09-20T03:05:39.681Z,9.52
2022-09-20T03:08:25.722Z,10.11
2022-09-20T03:11:15.961Z,10.12
2022-09-20T03:13:50.070Z,10.17
2022-09-20T03:16:31.757Z,10.19
2022-09-20T03:19:33.458Z,10.24
2022-09-20T03:22:15.835Z,10.25
2022-09-20T03:25:01.017Z,10.05
2022-09-20T03:27:53.675Z,10.22
2022-09-20T03:30:36.468Z,10.07
2022-09-20T03:33:06.073Z,10.22
2022-09-20T03:35:57.612Z,10.26
2022-09-20T03:38:53.197Z,10.29
2022-09-20T03:41:34.989Z,10.28
2022-09-20T03:44:23.846Z,10.20
2022-09-20T03:47:16.599Z,9.61
2022-09-20T03:50:04.806Z,10.14
2022-09-20T03:53:05.757Z,10.19
2022-09-20T03:55:56.048Z,10.19
2022-09-20T03:58:28.498Z,10.17
2022-09-20T04:01:16.621Z,10.17
2022-09-20T04:04:04.835Z,10.19
2022-09-20T04:06:59.147Z,9.92
2022-09-20T04:10:16.079Z,9.77
2022-09-20T04:13:11.587Z,9.77
2022-09-20T04:16:10.301Z,10.16
2022-09-20T04:19:24.470Z,10.14
2022-09-20T04:22:01.360Z,8.99
2022-09-20T04:24:51.089Z,10.11
2022-09-20T04:27:44.217Z,10.14
2022-09-20T04:30:24.165Z,9.75
2022-09-20T04:33:04.383Z,10.01
2022-09-20T04:36:04.706Z,10.17
2022-09-20T04:38:31.554Z,10.18
2022-09-20T04:41:10.224Z,10.17
2022-09-20T04:44:12.039Z,10.17
2022-09-20T04:46:56.079Z,10.14
2022-09-20T04:49:56.806Z,9.93
2022-09-20T04:52:53.592Z,9.18
2022-09-20T04:55:57.509Z,10.19
2022-09-20T04:58:43.821Z,10.17
2022-09-20T05:01:28.318Z,10.09
2022-09-20T05:04:20.943Z,9.76
2022-09-20T05:07:07.224Z,10.14
2022-09-20T05:09:45.732Z,10.17
2022-09-20T05:12:34.410Z,10.13
2022-09-20T05:15:31.607Z,10.17
2022-09-20T05:18:35.934Z,10.24
2022-09-20T05:21:34.521Z,10.23
2022-09-20T05:24:19.063Z,10.16
2022-09-20T05:27:18.488Z,10.18
2022-09-20T05:29:56.901Z,9.71
2022-09-20T05:32:41.093Z,10.06
2022-09-20T05:35:28.386Z,10.25
2022-09-20T05:38:23.543Z,10.31
2022-09-20T05:41:18.920Z,10.31
2022-09-20T05:44:04.621Z,10.30
2022-09-20T05:46:37.044Z,10.22
2022-09-20T05:49:28.605Z,10.19
2022-09-20T05:52:33.888Z,10.16
2022-09-20T05:55:39.788Z,9.93
2022-09-20T05:58:23.817Z,10.23
2022-09-20T06:01:15.633Z,10.12
2022-09-20T06:03:48.554Z,10.28
2022-09-20T06:06:57.653Z,10.32
2022-09-20T06:09:50.914Z,10.32
2022-09-20T06:12:41.361Z,10.25
2022-09-20T06:15:21.697Z,9.79
2022-09-20T06:17:59.898Z,10.25
2022-09-20T06:20:47.595Z,10.25
2022-09-20T06:23:15.055Z,9.92
2022-09-20T06:26:02.110Z,10.26
2022-09-20T06:28:34.032Z,10.31
2022-09-20T06:31:00.726Z,9.42
2022-09-20T06:33:30.033Z,8.49
2022-09-20T06:36:48.911Z,10.46
2022-09-20T06:39:56.204Z,10.56
2022-09-20T06:42:26.941Z,9.29
2022-09-20T06:44:53.698Z,10.65
2022-09-20T06:47:20.199Z,10.73
2022-09-20T06:49:47.720Z,10.55
2022-09-20T06:52:16.836Z,10.75
2022-09-20T06:54:46.178Z,10.64
2022-09-20T06:57:16.687Z,10.78
2022-09-20T06:59:43.173Z,10.29
2022-09-20T07:02:10.961Z,10.79
2022-09-20T07:04:37.799Z,9.77
2022-09-20T07:07:09.411Z,10.16
2022-09-20T07:09:36.423Z,10.33
2022-09-20T07:12:03.373Z,10.49
2022-09-20T07:14:29.918Z,10.66
2022-09-20T07:16:56.475Z,10.70
2022-09-20T07:19:23.364Z,10.78
2022-09-20T07:21:50.057Z,10.82
2022-09-20T07:24:16.640Z,10.82
2022-09-20T07:27:01.398Z,10.86
2022-09-20T07:29:28.944Z,10.89
2022-09-20T07:31:56.868Z,10.90
2022-09-20T07:34:24.008Z,10.91
2022-09-20T07:36:51.272Z,10.83
2022-09-20T07:39:18.014Z,10.90
2022-09-20T07:41:48.413Z,10.89
2022-09-20T07:44:22.137Z,10.41
2022-09-20T07:46:52.510Z,10.72
2022-09-20T07:49:19.170Z,10.86
2022-09-20T07:51:45.874Z,10.49
2022-09-20T07:54:12.605Z,11.08
2022-09-20T07:56:39.826Z,9.20
2022-09-20T07:59:06.501Z,11.22
2022-09-20T08:01:33.602Z,10.97
2022-09-20T08:04:00.852Z,10.93
2022-09-20T08:06:27.450Z,11.27
2022-09-20T08:08:54.505Z,11.19
2022-09-20T08:11:29.095Z,11.42
2022-09-20T08:14:12.863Z,11.21
2022-09-20T08:16:42.931Z,11.21
2022-09-20T08:19:13.951Z,11.18
2022-09-20T08:21:41.034Z,9.78
2022-09-20T08:24:07.512Z,10.93
2022-09-20T08:26:35.894Z,11.03
2022-09-20T08:29:03.618Z,11.11
2022-09-20T08:31:36.960Z,10.89
2022-09-20T08:34:06.608Z,11.21
2022-09-20T08:36:36.670Z,11.24
2022-09-20T08:42:05.631Z,11.45
2022-09-20T08:44:45.404Z,11.61
2022-09-20T08:47:22.440Z,11.68
2022-09-20T08:49:56.923Z,11.68
2022-09-20T08:52:45.472Z,11.23
2022-09-20T08:55:37.314Z,11.71
2022-09-20T08:58:13.525Z,11.72
2022-09-20T09:00:50.041Z,11.98
2022-09-20T09:03:18.561Z,12.01
2022-09-20T09:05:53.906Z,11.98
2022-09-20T09:08:30.939Z,11.98
2022-09-20T09:11:01.872Z,11.44
2022-09-20T09:13:37.430Z,12.03
2022-09-20T09:16:12.868Z,12.05
2022-09-20T09:18:42.169Z,12.11
2022-09-20T09:21:17.007Z,12.13
2022-09-20T09:24:09.770Z,12.12
2022-09-20T09:26:40.063Z,12.14
2022-09-20T09:29:18.333Z,12.08
2022-09-20T09:31:46.786Z,11.92
2022-09-20T09:34:27.606Z,11.85
2022-09-20T09:36:55.501Z,11.85
2022-09-20T09:39:26.475Z,11.88
2022-09-20T09:41:53.053Z,11.50
2022-09-20T09:44:21.495Z,11.87
2022-09-20T09:46:53.818Z,11.90
2022-09-20T09:49:23.393Z,11.54
2022-09-20T09:52:01.620Z,11.94
2022-09-20T09:54:38.264Z,11.96
2022-09-20T09:57:20.587Z,12.09
2022-09-20T10:00:19.233Z,11.95
2022-09-20T10:03:21.971Z,12.59
2022-09-20T10:06:23.379Z,12.64
2022-09-20T10:09:02.131Z,13.22
2022-09-20T10:11:51.505Z,12.76
2022-09-20T10:14:36.514Z,13.64
2022-09-20T10:17:22.447Z,13.87
2022-09-20T10:20:03.919Z,13.57
2022-09-20T10:22:39.249Z,14.23
2022-09-20T10:25:32.083Z,14.53
2022-09-20T10:28:01.290Z,14.69
2022-09-20T10:30:58.356Z,14.19
2022-09-20T10:34:09.306Z,14.52
2022-09-20T10:36:51.770Z,13.51
2022-09-20T10:39:31.649Z,13.29
2022-09-20T10:42:41.611Z,13.67
2022-09-20T10:45:59.134Z,13.80
2022-09-20T10:48:37.007Z,14.01
2022-09-20T10:51:56.089Z,14.61
2022-09-20T10:54:33.877Z,14.93
2022-09-20T10:57:18.890Z,15.27
2022-09-20T10:59:59.891Z,15.56
2022-09-20T11:02:45.850Z,15.82
2022-09-20T11:05:25.843Z,15.96
2022-09-20T11:07:52.570Z,16.76
2022-09-20T11:10:25.431Z,15.98
2022-09-20T11:12:58.394Z,17.50
2022-09-20T11:15:31.353Z,17.56
2022-09-20T11:18:40.213Z,17.79
2022-09-20T11:21:19.237Z,17.41
2022-09-20T11:23:55.136Z,18.03
2022-09-20T11:26:41.826Z,16.99
2022-09-20T11:29:25.288Z,17.64
2022-09-20T11:31:54.793Z,17.09
2022-09-20T11:34:31.216Z,17.11
2022-09-20T11:37:02.582Z,16.82
2022-09-20T11:39:52.654Z,16.97
2022-09-20T11:42:33.060Z,16.93
2022-09-20T11:44:59.824Z,17.07
2022-09-20T11:47:53.944Z,17.03
2022-09-20T11:50:32.959Z,17.44
2022-09-20T11:53:21.071Z,17.83
2022-09-20T11:56:00.870Z,17.91
2022-09-20T11:58:28.246Z,18.00
2022-09-20T12:00:58.459Z,17.66
2022-09-20T12:03:29.673Z,16.92
2022-09-20T12:06:07.963Z,16.69
2022-09-20T12:08:41.932Z,16.42
2022-09-20T12:11:15.199Z,15.28
2022-09-20T12:13:52.719Z,16.02
2022-09-20T12:16:46.036Z,16.24
2022-09-20T12:19:21.357Z,16.34
2022-09-20T12:22:15.989Z,16.56
2022-09-20T12:24:45.458Z,16.32
2022-09-20T12:27:27.575Z,17.58
2022-09-20T12:30:16.744Z,17.45
2022-09-20T12:32:57.868Z,17.48
2022-09-20T12:35:37.098Z,17.16
2022-09-20T12:38:22.059Z,16.49
2022-09-20T12:41:13.032Z,16.23
2022-09-20T12:44:05.640Z,16.12
2022-09-20T12:46:40.990Z,15.94
2022-09-20T12:49:41.014Z,15.44
2022-09-20T12:52:50.380Z,15.59
2022-09-20T12:55:41.033Z,15.53
2022-09-20T12:58:22.678Z,14.71
2022-09-20T13:00:56.127Z,15.20
2022-09-20T13:03:35.430Z,15.15
2022-09-20T13:06:10.930Z,15.05
2022-09-20T13:09:08.677Z,14.81
2022-09-20T13:11:52.202Z,14.70
2022-09-20T13:14:21.952Z,14.43
2022-09-20T13:17:04.498Z,14.57
2022-09-20T13:19:34.237Z,13.61
2022-09-20T13:22:03.875Z,14.53
2022-09-20T13:24:41.402Z,14.45
2022-09-20T13:27:24.769Z,14.30
2022-09-20T13:29:53.312Z,13.89
2022-09-20T13:32:26.289Z,13.80
2022-09-20T13:35:05.389Z,14.09
2022-09-20T13:37:32.521Z,13.85
2022-09-20T13:39:59.810Z,13.84
2022-09-20T13:42:30.004Z,13.76
2022-09-20T13:44:58.746Z,13.74
2022-09-20T13:47:31.637Z,13.65
2022-09-20T13:50:10.658Z,13.52
2022-09-20T13:52:45.431Z,13.44
2022-09-20T13:55:28.498Z,13.43
2022-09-20T13:57:57.446Z,13.46
2022-09-20T14:00:25.267Z,13.42
2022-09-20T14:02:56.879Z,13.36
2022-09-20T14:05:26.454Z,13.29
2022-09-20T14:07:53.893Z,13.21
2022-09-20T14:10:41.046Z,12.66
2022-09-20T14:13:12.421Z,12.44
2022-09-20T14:15:43.623Z,12.70
2022-09-20T14:18:17.124Z,13.23
2022-09-20T14:20:47.663Z,13.27
2022-09-20T14:23:26.595Z,13.14
2022-09-20T14:26:08.250Z,12.73
2022-09-20T14:28:38.147Z,13.40
2022-09-20T14:31:08.839Z,13.09
2022-09-20T14:33:42.986Z,13.25
2022-09-20T14:36:18.614Z,13.22
2022-09-20T14:38:59.693Z,13.26
2022-09-20T14:41:34.051Z,13.31
2022-09-20T14:44:05.729Z,11.18
2022-09-20T14:46:36.341Z,13.31
2022-09-20T14:49:20.647Z,13.11
2022-09-20T14:51:48.825Z,13.32
2022-09-20T14:54:30.140Z,13.36
2022-09-20T14:56:58.919Z,12.73
2022-09-20T14:59:30.545Z,12.03
2022-09-20T15:02:08.857Z,13.39
2022-09-20T15:04:40.188Z,13.35
2022-09-20T15:07:11.359Z,13.29
2022-09-20T15:09:37.892Z,12.67
2022-09-20T15:12:13.574Z,12.99
2022-09-20T15:14:42.825Z,13.19
2022-09-20T15:17:21.412Z,13.17
2022-09-20T15:19:49.331Z,13.17
2022-09-20T15:22:16.540Z,13.17
2022-09-20T15:24:43.603Z,12.58
2022-09-20T15:27:12.223Z,12.32
2022-09-20T15:29:39.241Z,12.75
2022-09-20T15:32:06.578Z,12.76
2022-09-20T15:34:33.170Z,12.70
2022-09-20T15:36:59.723Z,12.66
2022-09-20T15:39:26.203Z,12.35
2022-09-20T15:41:53.093Z,12.51
2022-09-20T15:44:20.632Z,12.50
2022-09-20T15:46:50.654Z,12.49
2022-09-20T15:49:17.250Z,12.45
2022-09-20T15:51:43.715Z,12.39
2022-09-20T15:54:13.367Z,12.18
2022-09-20T15:56:40.457Z,11.48
2022-09-20T15:59:09.147Z,12.14
2022-09-20T16:01:44.527Z,12.08
2022-09-20T16:04:21.337Z,11.94
2022-09-20T16:06:49.731Z,11.67
2022-09-20T16:09:16.659Z,12.15
2022-09-20T16:11:43.345Z,10.88
2022-09-20T16:14:09.891Z,12.03
2022-09-20T16:16:40.290Z,12.13
2022-09-20T16:19:24.857Z,12.14
2022-09-20T16:21:58.200Z,11.76
2022-09-20T16:24:27.654Z,12.09
2022-09-20T16:26:54.786Z,12.06
2022-09-20T16:29:25.952Z,11.66
2022-09-20T16:31:54.432Z,11.98
2022-09-20T16:34:31.126Z,11.93
2022-09-20T16:37:03.628Z,11.92
2022-09-20T16:39:31.059Z,11.45
2022-09-20T16:42:04.630Z,11.85
2022-09-20T16:44:36.110Z,11.78
2022-09-20T16:47:05.210Z,11.72
2022-09-20T16:49:31.719Z,11.73
2022-09-20T16:51:58.302Z,11.79
2022-09-20T16:54:27.418Z,11.65
2022-09-20T16:56:57.586Z,11.86
2022-09-20T16:59:24.148Z,11.41
2022-09-20T17:01:51.172Z,11.77
2022-09-20T17:04:18.969Z,11.90
2022-09-20T17:06:45.899Z,11.78
2022-09-20T17:09:13.988Z,11.90
2022-09-20T17:11:45.931Z,11.93
2022-09-20T17:14:13.725Z,11.96
2022-09-20T17:16:42.401Z,11.96
2022-09-20T17:19:16.729Z,11.95
2022-09-20T17:21:46.225Z,11.91
2022-09-20T17:24:14.141Z,11.86
2022-09-20T17:26:44.429Z,11.80
2022-09-20T17:29:13.984Z,11.80
2022-09-20T17:31:43.917Z,11.85
2022-09-20T17:34:12.453Z,11.29
2022-09-20T17:36:43.619Z,11.90
2022-09-20T17:39:12.241Z,11.90
2022-09-20T17:41:40.890Z,11.92
2022-09-20T17:44:12.392Z,11.92
2022-09-20T17:46:40.885Z,11.46
2022-09-20T17:49:12.714Z,11.90
2022-09-20T17:51:42.046Z,11.88
2022-09-20T17:54:14.256Z,11.87
2022-09-20T17:56:46.377Z,11.64
2022-09-20T17:59:17.173Z,11.83
2022-09-20T18:01:45.467Z,11.74
2022-09-20T18:04:13.087Z,11.81
2022-09-20T18:06:48.255Z,11.78
2022-09-20T18:09:17.526Z,11.82
2022-09-20T18:11:54.695Z,11.79
2022-09-20T18:14:27.332Z,11.60
2022-09-20T18:16:57.915Z,11.64
2022-09-20T18:19:24.611Z,11.40
2022-09-20T18:21:51.657Z,11.63
2022-09-20T18:24:18.326Z,11.77
2022-09-20T18:26:44.825Z,11.46
2022-09-20T18:29:16.678Z,11.79
2022-09-20T18:31:54.235Z,11.78
2022-09-20T18:34:23.097Z,11.77
2022-09-20T18:36:57.693Z,11.73
2022-09-20T18:39:26.474Z,11.74
2022-09-20T18:41:53.536Z,11.77
2022-09-20T18:44:21.828Z,11.69
2022-09-20T18:46:49.799Z,10.47
2022-09-20T18:49:17.125Z,11.60
2022-09-20T18:51:44.523Z,11.71
2022-09-20T18:54:11.829Z,11.77
2022-09-20T18:56:40.819Z,10.54
2022-09-20T18:59:14.418Z,11.77
2022-09-20T19:01:54.989Z,11.65
2022-09-20T19:04:52.497Z,11.79
2022-09-20T19:07:28.068Z,11.79
2022-09-20T19:10:08.454Z,11.65
2022-09-20T19:12:35.166Z,11.78
2022-09-20T19:15:08.864Z,11.76
2022-09-20T19:18:09.040Z,11.22
2022-09-20T19:20:38.494Z,11.72
2022-09-20T19:23:25.298Z,11.69
2022-09-20T19:26:21.929Z,11.66
2022-09-20T19:28:55.099Z,11.57
2022-09-20T19:31:33.062Z,11.70
2022-09-20T19:34:02.975Z,11.24
2022-09-20T19:37:00.193Z,11.39
2022-09-20T19:39:54.242Z,11.54
2022-09-20T19:42:36.245Z,11.49
2022-09-20T19:45:21.004Z,11.49
2022-09-20T19:48:24.871Z,11.49
2022-09-20T19:50:55.063Z,11.51
2022-09-20T19:53:23.376Z,11.54
2022-09-20T19:55:57.016Z,11.50
2022-09-20T19:58:23.878Z,11.27
2022-09-20T20:00:50.651Z,11.22
2022-09-20T20:03:17.728Z,10.72
2022-09-20T20:06:24.898Z,11.43
2022-09-20T20:08:55.003Z,11.37
2022-09-20T20:11:43.381Z,11.32
2022-09-20T20:14:37.220Z,10.90
2022-09-20T20:17:36.972Z,11.24
2022-09-20T20:20:16.174Z,11.23
2022-09-20T20:22:48.616Z,11.22
2022-09-20T20:25:27.351Z,11.14
2022-09-20T20:27:54.012Z,10.01
2022-09-20T20:30:20.621Z,10.43
2022-09-20T20:32:47.557Z,10.86
2022-09-20T20:35:15.023Z,11.04
2022-09-20T20:37:41.563Z,11.02
2022-09-20T20:40:12.177Z,10.49
2022-09-20T20:42:39.028Z,10.03
2022-09-20T20:45:06.035Z,10.92
2022-09-20T20:47:33.116Z,10.89
2022-09-20T20:49:59.953Z,10.60
2022-09-20T20:52:26.445Z,10.84
2022-09-20T20:54:53.038Z,10.82
2022-09-20T20:57:19.537Z,10.47
2022-09-20T20:59:46.041Z,9.53
2022-09-20T21:02:12.633Z,9.94
2022-09-20T21:04:40.458Z,9.90
2022-09-20T21:07:07.465Z,9.74
2022-09-20T21:09:34.185Z,10.58
2022-09-20T21:12:00.770Z,10.48
2022-09-20T21:14:27.346Z,9.81
2022-09-20T21:16:53.865Z,10.69
2022-09-20T21:19:22.359Z,10.69
2022-09-20T21:21:48.970Z,10.35
2022-09-20T21:24:17.347Z,9.84
2022-09-20T21:26:45.647Z,10.37
2022-09-20T21:29:14.381Z,10.74
2022-09-20T21:31:43.609Z,10.05
2022-09-20T21:34:12.155Z,9.98
2022-09-20T21:36:41.335Z,10.79
2022-09-20T21:39:08.564Z,10.79
2022-09-20T21:41:37.372Z,10.66
2022-09-20T21:44:05.135Z,10.84
2022-09-20T21:46:34.114Z,10.86
2022-09-20T21:49:04.497Z,10.86
2022-09-20T21:51:31.926Z,10.41
2022-09-20T21:54:01.364Z,10.86
2022-09-20T21:56:31.332Z,10.68
2022-09-20T21:58:58.473Z,10.00
2022-09-20T22:01:26.835Z,10.80
2022-09-20T22:03:57.418Z,10.37
2022-09-20T22:06:27.034Z,10.81
2022-09-20T22:08:59.434Z,7.81
2022-09-20T22:11:28.550Z,10.84
2022-09-20T22:13:56.001Z,10.30
2022-09-20T22:16:30.653Z,9.71
2022-09-20T22:18:59.173Z,10.78
2022-09-20T22:21:37.403Z,10.70
2022-09-20T22:24:07.720Z,10.72
2022-09-20T22:26:36.864Z,10.69
2022-09-20T22:29:04.353Z,10.39
2022-09-20T22:31:33.045Z,10.42
2022-09-20T22:34:01.967Z,10.65
2022-09-20T22:36:38.127Z,10.80
2022-09-20T22:39:07.474Z,10.74
2022-09-20T22:41:34.655Z,10.72
2022-09-20T22:44:01.332Z,10.73
2022-09-20T22:46:29.708Z,10.74
2022-09-20T22:48:56.879Z,10.58
2022-09-20T22:51:25.629Z,10.68
2022-09-20T22:53:52.963Z,10.69
2022-09-20T22:56:31.659Z,10.70
2022-09-20T22:59:05.675Z,10.52
2022-09-20T23:01:34.966Z,10.74
2022-09-20T23:04:06.128Z,10.75
2022-09-20T23:06:59.096Z,10.76
2022-09-20T23:09:28.209Z,10.78
2022-09-20T23:11:54.759Z,10.80
2022-09-20T23:14:22.148Z,10.59
2022-09-20T23:16:49.045Z,10.80
2022-09-20T23:19:15.878Z,10.81
2022-09-20T23:21:43.407Z,10.79
2022-09-20T23:24:11.787Z,10.54
2022-09-20T23:26:40.086Z,10.81
2022-09-20T23:29:09.221Z,9.62
2022-09-20T23:31:37.625Z,10.83
2022-09-20T23:34:06.253Z,10.74
2022-09-20T23:36:36.022Z,10.27
2022-09-20T23:39:02.593Z,10.85
2022-09-20T23:41:29.419Z,10.43
2022-09-20T23:43:56.234Z,10.68
2022-09-20T23:46:26.596Z,10.69
2022-09-20T23:48:53.626Z,10.88
2022-09-20T23:51:25.718Z,10.79
2022-09-20T23:53:53.490Z,10.92
2022-09-20T23:56:21.438Z,10.92
2022-09-20T23:58:48.654Z,10.88
